Time;durP1;ratioP1;P1;durP2;ratioP2;P2;SDS_P1;SDS_P2;PMS_P1;PMS_P2;Temp;Humidity;BMP_temperature;BMP_pressure;BME280_temperature;BME280_humidity;BME280_pressure;Samples;Min_cycle;Max_cycle;Signal;HPM_P1;HPM_P2
2023/06/21 00:00:31;;;;;;;17.30;3.10;;;;;;;;;;5028878;28;20459;-76
2023/06/21 00:03:00;;;;;;;13.52;2.85;;;;;;;;;;5026236;28;20104;-76
2023/06/21 00:05:26;;;;;;;13.18;2.50;;;;;;;;;;5029793;28;20109;-76
2023/06/21 00:07:53;;;;;;;18.30;2.95;;;;;;;;;;5033307;28;20108;-76
2023/06/21 00:10:20;;;;;;;8.70;2.20;;;;;;;;;;5033313;28;20071;-76
2023/06/21 00:12:46;;;;;;;9.80;2.10;;;;;;;;;;5032348;28;20022;-76
2023/06/21 00:15:12;;;;;;;9.90;2.50;;;;;;;;;;5033626;28;20033;-76
2023/06/21 00:17:38;;;;;;;9.25;2.08;;;;;;;;;;5033373;28;20029;-76
2023/06/21 00:20:06;;;;;;;9.13;2.25;;;;;;;;;;5033544;28;20048;-76
2023/06/21 00:22:35;;;;;;;10.68;2.03;;;;;;;;;;5032735;28;20177;-76
2023/06/21 00:25:01;;;;;;;10.05;2.15;;;;;;;;;;5032853;28;20052;-76
2023/06/21 00:27:27;;;;;;;9.15;2.33;;;;;;;;;;5033099;28;20423;-75
2023/06/21 00:29:53;;;;;;;13.93;2.33;;;;;;;;;;5033128;28;20029;-75
2023/06/21 00:32:19;;;;;;;9.93;2.20;;;;;;;;;;5032456;28;20076;-77
2023/06/21 00:34:47;;;;;;;11.57;2.53;;;;;;;;;;5033403;28;20025;-76
2023/06/21 00:37:13;;;;;;;8.52;2.15;;;;;;;;;;5032784;28;20014;-77
2023/06/21 00:39:39;;;;;;;8.73;2.00;;;;;;;;;;5033296;28;20021;-76
2023/06/21 00:42:06;;;;;;;9.05;2.10;;;;;;;;;;5032819;28;20105;-77
2023/06/21 00:44:32;;;;;;;9.93;2.50;;;;;;;;;;5033369;28;20391;-75
2023/06/21 00:46:58;;;;;;;10.27;2.17;;;;;;;;;;5031591;28;20026;-76
2023/06/21 00:49:25;;;;;;;9.43;2.60;;;;;;;;;;5032856;28;20034;-75
2023/06/21 00:51:57;;;;;;;6.88;2.50;;;;;;;;;;5031659;28;20018;-75
2023/06/21 00:54:23;;;;;;;8.40;3.00;;;;;;;;;;5032609;28;20503;-76
2023/06/21 00:56:49;;;;;;;10.07;2.50;;;;;;;;;;5033124;28;20386;-75
2023/06/21 00:59:15;;;;;;;8.63;2.30;;;;;;;;;;5032596;28;20104;-76
2023/06/21 01:01:41;;;;;;;12.45;2.58;;;;;;;;;;5032534;28;20076;-75
2023/06/21 01:04:08;;;;;;;9.38;2.60;;;;;;;;;;5031945;28;20026;-76
2023/06/21 01:06:34;;;;;;;10.68;2.65;;;;;;;;;;5032500;28;20076;-75
2023/06/21 01:09:19;;;;;;;8.68;2.55;;;;;;;;;;5031911;28;20112;-75
2023/06/21 01:11:53;;;;;;;15.55;3.03;;;;;;;;;;5031907;28;20021;-75
2023/06/21 01:14:27;;;;;;;8.43;2.15;;;;;;;;;;5032159;28;20025;-74
2023/06/21 01:16:54;;;;;;;6.68;2.05;;;;;;;;;;5031590;28;20045;-75
2023/06/21 01:19:28;;;;;;;9.13;2.30;;;;;;;;;;5031895;28;20064;-76
2023/06/21 01:21:57;;;;;;;7.88;2.17;;;;;;;;;;5037342;28;20051;-76
2023/06/21 01:24:40;;;;;;;8.88;2.10;;;;;;;;;;5031092;28;20021;-76
2023/06/21 01:27:29;;;;;;;8.73;2.30;;;;;;;;;;5031098;28;20045;-76
2023/06/21 01:29:58;;;;;;;10.27;2.45;;;;;;;;;;5029741;28;20555;-77
2023/06/21 01:32:27;;;;;;;11.27;2.90;;;;;;;;;;5030169;28;20032;-76
2023/06/21 01:34:53;;;;;;;12.65;2.97;;;;;;;;;;5030744;28;20028;-75
2023/06/21 01:37:19;;;;;;;7.97;2.60;;;;;;;;;;5029749;28;20022;-76
2023/06/21 01:39:45;;;;;;;9.93;2.47;;;;;;;;;;5030832;28;20529;-76
2023/06/21 01:42:11;;;;;;;13.35;2.95;;;;;;;;;;5030739;28;20022;-75
2023/06/21 01:44:37;;;;;;;8.32;2.75;;;;;;;;;;5031274;28;20100;-75
2023/06/21 01:47:03;;;;;;;8.20;3.03;;;;;;;;;;5031027;28;20063;-75
2023/06/21 01:49:30;;;;;;;14.27;3.67;;;;;;;;;;5028831;28;20026;-76
2023/06/21 01:51:56;;;;;;;11.40;3.60;;;;;;;;;;5030559;28;20029;-75
2023/06/21 01:54:25;;;;;;;13.48;3.50;;;;;;;;;;5030899;28;20490;-75
2023/06/21 01:56:52;;;;;;;13.43;3.47;;;;;;;;;;5032903;28;20049;-75
2023/06/21 01:59:19;;;;;;;9.85;3.45;;;;;;;;;;5031543;28;20026;-74
2023/06/21 02:01:50;;;;;;;9.20;3.20;;;;;;;;;;5031644;28;20033;-74
2023/06/21 02:04:16;;;;;;;13.98;3.85;;;;;;;;;;5032300;28;20108;-74
2023/06/21 02:06:42;;;;;;;14.43;4.38;;;;;;;;;;5032716;28;20036;-74
2023/06/21 02:09:09;;;;;;;11.23;4.40;;;;;;;;;;5031846;28;20036;-74
2023/06/21 02:11:36;;;;;;;11.80;4.68;;;;;;;;;;5031413;28;20112;-74
2023/06/21 02:14:02;;;;;;;11.10;5.32;;;;;;;;;;5030794;28;20068;-74
2023/06/21 02:16:29;;;;;;;18.20;5.38;;;;;;;;;;5031300;28;20045;-75
2023/06/21 02:18:55;;;;;;;17.15;6.05;;;;;;;;;;5031271;28;20036;-75
2023/06/21 02:21:21;;;;;;;23.77;5.80;;;;;;;;;;5031181;28;20553;-75
2023/06/21 02:23:47;;;;;;;8.77;5.18;;;;;;;;;;5031315;28;20033;-75
2023/06/21 02:26:13;;;;;;;13.57;5.72;;;;;;;;;;5030892;28;20052;-74
2023/06/21 02:28:39;;;;;;;14.52;6.30;;;;;;;;;;5032098;28;20368;-76
2023/06/21 02:31:05;;;;;;;14.82;6.13;;;;;;;;;;5032537;28;20025;-76
2023/06/21 02:33:31;;;;;;;18.63;7.07;;;;;;;;;;5030619;28;20489;-74
2023/06/21 02:35:57;;;;;;;16.20;7.07;;;;;;;;;;5030613;28;20033;-77
2023/06/21 02:38:25;;;;;;;11.98;5.50;;;;;;;;;;5030196;28;20115;-74
2023/06/21 02:40:51;;;;;;;14.90;8.27;;;;;;;;;;5030730;28;20237;-74
2023/06/21 02:43:17;;;;;;;21.38;8.07;;;;;;;;;;5030021;28;20025;-77
2023/06/21 02:45:43;;;;;;;16.88;7.55;;;;;;;;;;5030569;28;20168;-76
2023/06/21 02:48:09;;;;;;;15.95;7.55;;;;;;;;;;5031711;28;20550;-75
2023/06/21 02:50:35;;;;;;;23.88;10.00;;;;;;;;;;5030961;28;20032;-76
2023/06/21 02:53:01;;;;;;;23.17;11.68;;;;;;;;;;5029586;28;20025;-76
2023/06/21 02:55:27;;;;;;;15.68;8.48;;;;;;;;;;5031917;28;20022;-76
2023/06/21 02:57:54;;;;;;;17.80;8.27;;;;;;;;;;5032385;28;20037;-75
2023/06/21 03:00:28;;;;;;;17.80;7.85;;;;;;;;;;5029018;28;20017;-75
2023/06/21 03:02:54;;;;;;;13.57;7.85;;;;;;;;;;5029449;28;20083;-75
2023/06/21 03:05:20;;;;;;;17.83;8.90;;;;;;;;;;5029886;28;20476;-76
2023/06/21 03:07:46;;;;;;;15.43;8.73;;;;;;;;;;5031850;28;20637;-75
2023/06/21 03:10:13;;;;;;;17.42;8.63;;;;;;;;;;5032464;28;20430;-74
2023/06/21 03:12:43;;;;;;;14.77;7.60;;;;;;;;;;5032634;28;20056;-79
2023/06/21 03:15:10;;;;;;;15.85;7.43;;;;;;;;;;5035406;28;20026;-77
2023/06/21 03:17:36;;;;;;;12.27;7.28;;;;;;;;;;5032047;28;20025;-77
2023/06/21 03:20:04;;;;;;;11.57;7.40;;;;;;;;;;5030629;28;20022;-76
2023/06/21 03:22:30;;;;;;;14.30;7.80;;;;;;;;;;5029426;28;20276;-76
2023/06/21 03:24:56;;;;;;;12.23;7.28;;;;;;;;;;5030330;28;20157;-75
2023/06/21 03:27:22;;;;;;;12.52;6.70;;;;;;;;;;5029989;28;20026;-75
2023/06/21 03:29:48;;;;;;;12.57;6.85;;;;;;;;;;5029970;28;20099;-75
2023/06/21 03:32:14;;;;;;;13.45;6.57;;;;;;;;;;5028761;28;20538;-75
2023/06/21 03:34:40;;;;;;;13.50;7.03;;;;;;;;;;5030078;28;20017;-75
2023/06/21 03:37:06;;;;;;;15.38;10.35;;;;;;;;;;5030263;28;20056;-75
2023/06/21 03:39:32;;;;;;;12.68;6.60;;;;;;;;;;5030849;28;20060;-75
2023/06/21 03:41:58;;;;;;;10.52;5.85;;;;;;;;;;5031903;28;20453;-75
2023/06/21 03:44:24;;;;;;;13.40;5.70;;;;;;;;;;5035779;28;20037;-78
2023/06/21 03:46:50;;;;;;;9.32;4.68;;;;;;;;;;5033381;28;20104;-76
2023/06/21 03:49:17;;;;;;;10.18;5.78;;;;;;;;;;5033596;28;20498;-74
2023/06/21 03:51:43;;;;;;;13.35;6.03;;;;;;;;;;5033087;28;20479;-76
2023/06/21 03:54:09;;;;;;;9.20;4.70;;;;;;;;;;5033801;28;20103;-75
2023/06/21 03:56:35;;;;;;;9.20;5.18;;;;;;;;;;5033443;28;20030;-75
2023/06/21 03:59:01;;;;;;;14.82;4.88;;;;;;;;;;5033645;28;20100;-74
2023/06/21 04:01:27;;;;;;;11.32;5.18;;;;;;;;;;5033309;28;20032;-75
2023/06/21 04:03:53;;;;;;;9.02;5.20;;;;;;;;;;5033180;28;20032;-75
2023/06/21 04:06:19;;;;;;;7.70;4.85;;;;;;;;;;5033460;28;20025;-75
2023/06/21 04:08:45;;;;;;;9.18;5.57;;;;;;;;;;5033319;28;20034;-75
2023/06/21 04:11:11;;;;;;;13.57;5.22;;;;;;;;;;5032609;28;20100;-75
2023/06/21 04:13:37;;;;;;;9.48;5.32;;;;;;;;;;5033214;28;20028;-75
2023/06/21 04:16:03;;;;;;;9.02;5.30;;;;;;;;;;5032991;28;20021;-74
2023/06/21 04:18:29;;;;;;;7.90;5.45;;;;;;;;;;5033295;28;20040;-75
2023/06/21 04:20:55;;;;;;;8.73;5.60;;;;;;;;;;5033174;28;20026;-76
2023/06/21 04:23:21;;;;;;;9.85;6.30;;;;;;;;;;5032020;28;20033;-76
2023/06/21 04:25:47;;;;;;;11.70;6.10;;;;;;;;;;5033304;28;20068;-75
2023/06/21 04:28:13;;;;;;;11.15;7.00;;;;;;;;;;5032955;28;20448;-76
2023/06/21 04:30:41;;;;;;;13.27;6.38;;;;;;;;;;5033221;28;20057;-75
2023/06/21 04:33:08;;;;;;;12.23;6.68;;;;;;;;;;5032633;28;20022;-75
2023/06/21 04:35:34;;;;;;;10.93;6.55;;;;;;;;;;5033051;28;20025;-75
2023/06/21 04:38:00;;;;;;;12.98;6.82;;;;;;;;;;5033255;28;20030;-74
2023/06/21 04:40:26;;;;;;;9.52;6.60;;;;;;;;;;5033763;28;20026;-75
2023/06/21 04:42:55;;;;;;;11.60;7.80;;;;;;;;;;5033093;28;20025;-76
2023/06/21 04:45:21;;;;;;;13.32;8.48;;;;;;;;;;5034058;28;20475;-75
2023/06/21 04:47:47;;;;;;;10.35;8.18;;;;;;;;;;5034990;28;20399;-75
2023/06/21 04:50:14;;;;;;;10.90;8.30;;;;;;;;;;5036156;28;20442;-73
2023/06/21 04:52:40;;;;;;;16.55;10.00;;;;;;;;;;5033191;28;20099;-75
2023/06/21 04:55:06;;;;;;;13.48;8.82;;;;;;;;;;5033741;28;20068;-75
2023/06/21 04:57:32;;;;;;;20.58;11.20;;;;;;;;;;5033728;28;20026;-74
2023/06/21 04:59:58;;;;;;;14.35;9.57;;;;;;;;;;5033517;28;20099;-74
2023/06/21 05:02:25;;;;;;;14.82;9.43;;;;;;;;;;5033366;28;20021;-76
2023/06/21 05:04:51;;;;;;;12.38;9.40;;;;;;;;;;5033761;28;20080;-76
2023/06/21 05:07:17;;;;;;;15.40;9.73;;;;;;;;;;5034458;28;20344;-75
2023/06/21 05:09:43;;;;;;;16.08;10.35;;;;;;;;;;5035673;28;20029;-76
2023/06/21 05:12:09;;;;;;;15.75;11.48;;;;;;;;;;5033864;28;20326;-76
2023/06/21 05:14:35;;;;;;;17.23;10.00;;;;;;;;;;5033198;28;20022;-74
2023/06/21 05:17:01;;;;;;;15.57;11.93;;;;;;;;;;5033130;28;20113;-75
2023/06/21 05:19:27;;;;;;;22.13;13.77;;;;;;;;;;5034167;28;20040;-76
2023/06/21 05:21:53;;;;;;;23.70;16.05;;;;;;;;;;5039510;28;20033;-76
2023/06/21 05:24:19;;;;;;;25.05;15.57;;;;;;;;;;5034199;28;20386;-76
2023/06/21 05:26:45;;;;;;;26.70;17.10;;;;;;;;;;5037539;28;20025;-75
2023/06/21 05:29:12;;;;;;;36.08;22.65;;;;;;;;;;5032608;28;20069;-78
2023/06/21 05:31:38;;;;;;;39.72;26.35;;;;;;;;;;5035282;28;20026;-75
2023/06/21 05:34:04;;;;;;;39.40;26.13;;;;;;;;;;5029901;28;20033;-75
2023/06/21 05:36:30;;;;;;;43.63;27.10;;;;;;;;;;5043999;28;20116;-75
2023/06/21 05:38:56;;;;;;;47.90;28.85;;;;;;;;;;5032978;28;20439;-74
2023/06/21 05:41:22;;;;;;;45.22;28.25;;;;;;;;;;5039110;28;20037;-75
2023/06/21 05:43:48;;;;;;;48.67;30.73;;;;;;;;;;5037158;28;20036;-76
2023/06/21 05:46:14;;;;;;;55.97;32.58;;;;;;;;;;5043635;28;20037;-74
2023/06/21 05:48:40;;;;;;;52.45;34.63;;;;;;;;;;5032250;28;20021;-76
2023/06/21 05:51:06;;;;;;;56.55;35.80;;;;;;;;;;5032476;28;20515;-75
2023/06/21 05:53:32;;;;;;;61.80;33.63;;;;;;;;;;5040000;28;20017;-76
2023/06/21 05:55:59;;;;;;;59.53;36.40;;;;;;;;;;5032001;28;20044;-73
2023/06/21 05:58:25;;;;;;;60.00;36.08;;;;;;;;;;5032299;28;20030;-74
2023/06/21 06:00:51;;;;;;;54.58;36.28;;;;;;;;;;5038040;28;20025;-75
2023/06/21 06:03:17;;;;;;;64.75;36.15;;;;;;;;;;5036178;28;20475;-77
2023/06/21 06:05:44;;;;;;;53.50;34.83;;;;;;;;;;5031812;28;20635;-73
2023/06/21 06:08:10;;;;;;;54.50;34.47;;;;;;;;;;5032011;28;20039;-76
2023/06/21 06:10:36;;;;;;;54.58;34.58;;;;;;;;;;5031926;28;20108;-74
2023/06/21 06:13:02;;;;;;;51.17;33.05;;;;;;;;;;5032018;28;20486;-75
2023/06/21 06:15:29;;;;;;;49.72;32.25;;;;;;;;;;5032412;28;20033;-76
2023/06/21 06:17:55;;;;;;;54.60;36.20;;;;;;;;;;5032441;28;20021;-74
2023/06/21 06:20:21;;;;;;;51.53;34.67;;;;;;;;;;5032541;28;20427;-74
2023/06/21 06:22:50;;;;;;;48.13;34.15;;;;;;;;;;5031718;28;20025;-70
2023/06/21 06:25:16;;;;;;;53.13;35.58;;;;;;;;;;5031821;28;20467;-72
2023/06/21 06:27:42;;;;;;;51.75;34.75;;;;;;;;;;5031648;28;20036;-74
2023/06/21 06:30:09;;;;;;;47.53;32.97;;;;;;;;;;5031926;28;20101;-75
2023/06/21 06:32:35;;;;;;;43.92;30.42;;;;;;;;;;5033250;28;20100;-73
2023/06/21 06:35:00;;;;;;;51.78;33.15;;;;;;;;;;5033627;28;20052;-73
2023/06/21 06:37:26;;;;;;;47.53;32.70;;;;;;;;;;5030513;28;20031;-74
2023/06/21 06:39:54;;;;;;;50.30;33.83;;;;;;;;;;5032600;28;20024;-76
2023/06/21 06:42:20;;;;;;;44.35;32.75;;;;;;;;;;5032946;28;20030;-73
2023/06/21 06:44:47;;;;;;;49.75;32.38;;;;;;;;;;5034220;28;20033;-74
2023/06/21 06:47:13;;;;;;;49.40;33.33;;;;;;;;;;5032472;28;20049;-76
2023/06/21 06:49:39;;;;;;;52.95;32.38;;;;;;;;;;5034382;28;20025;-74
2023/06/21 06:52:06;;;;;;;48.75;33.03;;;;;;;;;;5029933;28;20034;-73
2023/06/21 06:54:32;;;;;;;47.28;33.72;;;;;;;;;;5028665;28;20055;-75
2023/06/21 06:56:58;;;;;;;48.30;33.45;;;;;;;;;;5029728;28;20029;-72
2023/06/21 06:59:24;;;;;;;48.03;34.00;;;;;;;;;;5030085;28;20025;-74
2023/06/21 07:01:50;;;;;;;46.05;32.78;;;;;;;;;;5029448;28;20372;-72
2023/06/21 07:04:16;;;;;;;40.85;29.60;;;;;;;;;;5037520;28;20079;-74
2023/06/21 07:06:42;;;;;;;44.80;31.13;;;;;;;;;;5039174;28;20033;-74
2023/06/21 07:09:08;;;;;;;48.33;31.95;;;;;;;;;;5039452;28;20029;-76
2023/06/21 07:11:35;;;;;;;43.70;28.73;;;;;;;;;;5037672;28;20095;-75
2023/06/21 07:14:01;;;;;;;44.25;29.30;;;;;;;;;;5036776;28;20482;-74
2023/06/21 07:16:30;;;;;;;40.22;29.35;;;;;;;;;;5038632;28;20029;-73
2023/06/21 07:18:56;;;;;;;46.58;27.70;;;;;;;;;;5043231;28;20100;-76
2023/06/21 07:21:25;;;;;;;42.72;28.85;;;;;;;;;;5054223;28;20107;-74
2023/06/21 07:23:51;;;;;;;45.88;29.67;;;;;;;;;;5053574;28;20036;-75
2023/06/21 07:26:16;;;;;;;42.22;28.45;;;;;;;;;;5062405;28;20025;-76
2023/06/21 07:28:42;;;;;;;35.17;25.83;;;;;;;;;;5056744;28;20029;-74
2023/06/21 07:31:08;;;;;;;34.38;26.40;;;;;;;;;;5054260;28;20036;-74
2023/06/21 07:33:34;;;;;;;36.95;25.52;;;;;;;;;;5053082;28;20029;-73
2023/06/21 07:36:00;;;;;;;29.92;23.02;;;;;;;;;;5054193;28;20096;-74
2023/06/21 07:38:26;;;;;;;30.92;23.45;;;;;;;;;;5053997;28;20466;-75
2023/06/21 07:40:52;;;;;;;29.77;22.95;;;;;;;;;;5053989;28;20037;-73
2023/06/21 07:43:20;;;;;;;33.80;24.73;;;;;;;;;;5053360;28;20028;-73
2023/06/21 07:45:46;;;;;;;39.38;27.75;;;;;;;;;;5053541;28;20021;-73
2023/06/21 07:48:12;;;;;;;42.53;28.05;;;;;;;;;;5053907;28;20307;-74
2023/06/21 07:50:38;;;;;;;34.00;24.63;;;;;;;;;;5053632;28;20529;-73
2023/06/21 07:53:03;;;;;;;30.45;24.58;;;;;;;;;;5052951;28;20032;-73
2023/06/21 07:55:30;;;;;;;33.70;22.75;;;;;;;;;;5053501;28;20053;-75
2023/06/21 07:57:56;;;;;;;34.60;26.13;;;;;;;;;;5054471;28;20075;-75
2023/06/21 08:00:22;;;;;;;38.78;28.80;;;;;;;;;;5054633;28;20413;-73
2023/06/21 08:02:49;;;;;;;40.25;29.92;;;;;;;;;;5054059;28;20037;-74
2023/06/21 08:05:15;;;;;;;42.20;32.60;;;;;;;;;;5054332;28;20020;-74
2023/06/21 08:07:42;;;;;;;38.13;29.88;;;;;;;;;;5035644;28;20135;-75
2023/06/21 08:10:08;;;;;;;32.97;27.42;;;;;;;;;;5032073;28;20444;-75
2023/06/21 08:12:34;;;;;;;31.85;26.42;;;;;;;;;;5031649;28;20112;-74
2023/06/21 08:15:00;;;;;;;34.40;26.25;;;;;;;;;;5032290;28;20030;-76
2023/06/21 08:17:26;;;;;;;36.88;30.00;;;;;;;;;;5032503;28;20041;-74
2023/06/21 08:19:52;;;;;;;34.88;27.38;;;;;;;;;;5032114;28;20041;-73
2023/06/21 08:22:18;;;;;;;32.70;26.42;;;;;;;;;;5031335;28;20072;-74
2023/06/21 08:24:44;;;;;;;36.95;25.00;;;;;;;;;;5032042;28;20033;-75
2023/06/21 08:27:11;;;;;;;37.50;25.00;;;;;;;;;;5031470;28;20523;-73
2023/06/21 08:29:37;;;;;;;31.40;24.05;;;;;;;;;;5031829;28;20056;-74
2023/06/21 08:32:04;;;;;;;31.33;22.02;;;;;;;;;;5030906;28;20402;-73
2023/06/21 08:34:30;;;;;;;28.17;21.30;;;;;;;;;;5032010;28;20033;-75
2023/06/21 08:36:56;;;;;;;28.30;20.10;;;;;;;;;;5031706;28;20490;-74
2023/06/21 08:39:22;;;;;;;26.63;18.65;;;;;;;;;;5031946;28;20036;-74
2023/06/21 08:41:48;;;;;;;27.65;17.27;;;;;;;;;;5031046;28;20034;-75
2023/06/21 08:44:14;;;;;;;26.00;16.80;;;;;;;;;;5031932;28;20036;-74
2023/06/21 08:46:41;;;;;;;26.08;17.63;;;;;;;;;;5031322;28;20037;-75
2023/06/21 08:49:09;;;;;;;20.67;15.85;;;;;;;;;;5031725;28;20491;-72
2023/06/21 08:51:35;;;;;;;21.77;15.65;;;;;;;;;;5031393;28;20408;-74
2023/06/21 08:54:03;;;;;;;23.48;14.25;;;;;;;;;;5032298;28;20120;-73
2023/06/21 08:56:33;;;;;;;19.67;13.10;;;;;;;;;;5032650;28;20475;-75
2023/06/21 08:59:03;;;;;;;20.52;13.85;;;;;;;;;;5035633;28;20028;-79
2023/06/21 09:01:32;;;;;;;19.88;13.90;;;;;;;;;;5037764;28;20167;-74
2023/06/21 09:03:59;;;;;;;20.20;13.20;;;;;;;;;;5037556;28;20159;-76
2023/06/21 09:06:26;;;;;;;19.45;13.77;;;;;;;;;;5036911;28;20026;-77
2023/06/21 09:08:53;;;;;;;20.10;13.63;;;;;;;;;;4981143;28;1610071;-76
2023/06/21 09:11:21;;;;;;;18.95;12.15;;;;;;;;;;5032877;28;20401;-74
2023/06/21 09:13:48;;;;;;;20.17;12.73;;;;;;;;;;5034840;28;20053;-74
2023/06/21 09:16:14;;;;;;;18.90;13.40;;;;;;;;;;5033831;28;20446;-79
2023/06/21 09:18:40;;;;;;;19.20;13.98;;;;;;;;;;5034294;28;20057;-72
2023/06/21 09:21:10;;;;;;;20.08;13.80;;;;;;;;;;5034576;28;20030;-75
2023/06/21 09:23:38;;;;;;;19.35;12.85;;;;;;;;;;5034241;28;20022;-76
2023/06/21 09:26:04;;;;;;;18.35;11.63;;;;;;;;;;5035280;28;20017;-80
2023/06/21 09:28:30;;;;;;;18.20;11.90;;;;;;;;;;5032196;28;20034;-75
2023/06/21 09:30:56;;;;;;;22.38;13.57;;;;;;;;;;5033980;28;20049;-79
2023/06/21 09:33:25;;;;;;;21.90;11.57;;;;;;;;;;5032399;28;20029;-74
2023/06/21 09:35:50;;;;;;;17.00;11.68;;;;;;;;;;5032874;28;20130;-74
2023/06/21 09:38:23;;;;;;;18.45;13.70;;;;;;;;;;5032365;28;20115;-74
2023/06/21 09:40:50;;;;;;;16.83;11.52;;;;;;;;;;5032427;28;20018;-75
2023/06/21 09:43:16;;;;;;;18.13;11.57;;;;;;;;;;5033331;28;20033;-75
2023/06/21 09:45:42;;;;;;;17.00;11.68;;;;;;;;;;5034402;28;20029;-74
2023/06/21 09:48:14;;;;;;;17.65;12.63;;;;;;;;;;5035107;28;20029;-75
2023/06/21 09:50:44;;;;;;;19.35;14.30;;;;;;;;;;5034785;28;20387;-74
2023/06/21 09:53:13;;;;;;;24.50;13.32;;;;;;;;;;5034135;28;20026;-76
2023/06/21 09:55:44;;;;;;;21.92;14.07;;;;;;;;;;5032455;28;20030;-75
2023/06/21 09:58:10;;;;;;;24.05;15.20;;;;;;;;;;5032538;28;20410;-75
2023/06/21 10:00:37;;;;;;;19.63;12.90;;;;;;;;;;5032282;28;20048;-74
2023/06/21 10:03:03;;;;;;;23.42;13.90;;;;;;;;;;5031912;28;20026;-76
2023/06/21 10:05:29;;;;;;;13.85;10.13;;;;;;;;;;5032095;28;20036;-74
2023/06/21 10:07:55;;;;;;;20.08;12.18;;;;;;;;;;5033635;28;20029;-74
2023/06/21 10:10:23;;;;;;;20.92;12.40;;;;;;;;;;5031677;28;20458;-75
2023/06/21 10:12:53;;;;;;;21.23;13.98;;;;;;;;;;5031509;28;20025;-74
2023/06/21 10:15:19;;;;;;;18.02;12.65;;;;;;;;;;5032026;28;20105;-75
2023/06/21 10:17:48;;;;;;;17.92;12.93;;;;;;;;;;5037683;28;20159;-74
2023/06/21 10:20:14;;;;;;;19.02;11.77;;;;;;;;;;5036309;28;20063;-75
2023/06/21 10:22:41;;;;;;;22.20;14.40;;;;;;;;;;5035866;28;20531;-75
2023/06/21 10:25:07;;;;;;;23.05;12.95;;;;;;;;;;5031780;28;20478;-75
2023/06/21 10:27:34;;;;;;;21.08;13.80;;;;;;;;;;5031919;28;20028;-75
2023/06/21 10:30:02;;;;;;;23.40;13.23;;;;;;;;;;5032089;28;20037;-74
2023/06/21 10:32:31;;;;;;;15.40;10.90;;;;;;;;;;5036410;28;20018;-74
2023/06/21 10:35:04;;;;;;;18.77;11.23;;;;;;;;;;5038836;28;20476;-75
2023/06/21 10:37:35;;;;;;;17.75;13.20;;;;;;;;;;5036704;28;20024;-74
2023/06/21 10:40:08;;;;;;;20.58;14.00;;;;;;;;;;5035465;28;20112;-75
2023/06/21 10:42:35;;;;;;;17.92;12.00;;;;;;;;;;5032338;28;20446;-74
2023/06/21 10:45:01;;;;;;;17.35;12.45;;;;;;;;;;5031562;28;20029;-75
2023/06/21 10:47:28;;;;;;;20.25;14.52;;;;;;;;;;5031217;28;20411;-74
2023/06/21 10:50:00;;;;;;;16.67;10.90;;;;;;;;;;5030798;28;20034;-74
2023/06/21 10:52:29;;;;;;;17.75;12.52;;;;;;;;;;5031096;28;20102;-74
2023/06/21 10:54:59;;;;;;;19.45;10.43;;;;;;;;;;5032402;28;20049;-75
2023/06/21 10:57:26;;;;;;;16.45;10.98;;;;;;;;;;5033436;28;20396;-74
2023/06/21 10:59:53;;;;;;;18.88;10.80;;;;;;;;;;5033204;28;20542;-75
2023/06/21 11:02:19;;;;;;;19.35;10.30;;;;;;;;;;5031273;28;20390;-75
2023/06/21 11:05:03;;;;;;;14.98;10.05;;;;;;;;;;5031697;28;20033;-75
2023/06/21 11:07:29;;;;;;;17.35;12.48;;;;;;;;;;5032524;28;20029;-75
2023/06/21 11:09:55;;;;;;;17.58;11.85;;;;;;;;;;5031406;28;20506;-74
2023/06/21 11:12:26;;;;;;;17.65;10.95;;;;;;;;;;5031453;28;20033;-75
2023/06/21 11:14:52;;;;;;;19.30;12.43;;;;;;;;;;5031477;28;20021;-75
2023/06/21 11:17:24;;;;;;;16.35;10.30;;;;;;;;;;5028094;28;20582;-74
2023/06/21 11:19:50;;;;;;;14.38;11.27;;;;;;;;;;5012329;28;20577;-75
2023/06/21 11:22:16;;;;;;;17.58;10.93;;;;;;;;;;5011149;28;20026;-74
2023/06/21 11:25:00;;;;;;;13.70;9.70;;;;;;;;;;5012817;28;20080;-74
2023/06/21 11:27:26;;;;;;;14.25;9.15;;;;;;;;;;5020290;28;20022;-74
2023/06/21 11:29:59;;;;;;;17.10;12.38;;;;;;;;;;5020310;28;20434;-74
2023/06/21 11:32:28;;;;;;;16.33;11.40;;;;;;;;;;5011796;28;20034;-75
2023/06/21 11:34:58;;;;;;;16.65;9.77;;;;;;;;;;5011964;28;20565;-75
2023/06/21 11:37:34;;;;;;;18.75;10.73;;;;;;;;;;5011426;28;20057;-75
2023/06/21 11:40:01;;;;;;;19.70;12.75;;;;;;;;;;5011057;28;20034;-75
2023/06/21 11:42:30;;;;;;;17.30;10.95;;;;;;;;;;5011060;28;20025;-75
2023/06/21 11:44:56;;;;;;;19.05;11.35;;;;;;;;;;5011240;28;20034;-75
2023/06/21 11:47:22;;;;;;;14.13;9.95;;;;;;;;;;5010839;28;20074;-75
2023/06/21 11:49:49;;;;;;;17.33;10.00;;;;;;;;;;5010074;28;20026;-73
2023/06/21 11:52:17;;;;;;;19.75;8.90;;;;;;;;;;5012077;28;20192;-74
2023/06/21 11:54:43;;;;;;;11.25;8.77;;;;;;;;;;5011519;28;20029;-73
2023/06/21 11:57:09;;;;;;;13.20;10.23;;;;;;;;;;5011305;28;20030;-75
2023/06/21 11:59:36;;;;;;;16.48;9.73;;;;;;;;;;5011129;28;20095;-75
2023/06/21 12:02:13;;;;;;;14.80;9.88;;;;;;;;;;5011226;28;20499;-76
2023/06/21 12:04:40;;;;;;;14.25;9.80;;;;;;;;;;5014357;28;20022;-76
2023/06/21 12:07:06;;;;;;;11.38;7.28;;;;;;;;;;5014683;28;20057;-76
2023/06/21 12:09:32;;;;;;;11.77;6.88;;;;;;;;;;5014224;28;20483;-76
2023/06/21 12:11:58;;;;;;;8.80;6.20;;;;;;;;;;5014198;28;20034;-76
2023/06/21 12:14:24;;;;;;;11.07;6.88;;;;;;;;;;5014434;28;20479;-76
2023/06/21 12:16:50;;;;;;;13.70;5.88;;;;;;;;;;5016667;28;20037;-76
2023/06/21 12:19:21;;;;;;;11.90;4.97;;;;;;;;;;5016934;28;20026;-76
2023/06/21 12:21:47;;;;;;;10.10;4.68;;;;;;;;;;5016750;28;20033;-76
2023/06/21 12:24:13;;;;;;;7.28;3.90;;;;;;;;;;5015288;28;20104;-76
2023/06/21 12:26:50;;;;;;;8.30;4.93;;;;;;;;;;5016477;28;20086;-76
2023/06/21 12:29:16;;;;;;;12.60;4.63;;;;;;;;;;5016473;28;20179;-77
2023/06/21 12:31:43;;;;;;;11.55;5.95;;;;;;;;;;5014610;28;20068;-77
2023/06/21 12:34:14;;;;;;;9.13;5.10;;;;;;;;;;5014936;28;20022;-76
2023/06/21 12:36:40;;;;;;;9.95;4.80;;;;;;;;;;5014682;28;20049;-76
2023/06/21 12:39:08;;;;;;;7.30;4.40;;;;;;;;;;5014274;28;20033;-76
2023/06/21 12:41:34;;;;;;;10.40;4.75;;;;;;;;;;5014334;28;20030;-76
2023/06/21 12:44:01;;;;;;;7.78;3.83;;;;;;;;;;5014206;28;20057;-77
2023/06/21 12:46:28;;;;;;;9.73;4.68;;;;;;;;;;5016513;28;20170;-76
2023/06/21 12:48:54;;;;;;;7.28;4.25;;;;;;;;;;5015746;28;20120;-77
2023/06/21 12:51:24;;;;;;;5.10;3.50;;;;;;;;;;5016173;28;20065;-76
2023/06/21 12:53:57;;;;;;;6.80;3.78;;;;;;;;;;5016430;28;20045;-75
2023/06/21 12:56:27;;;;;;;7.07;4.07;;;;;;;;;;5023001;28;20025;-76
2023/06/21 12:58:53;;;;;;;10.15;4.10;;;;;;;;;;5056133;28;20079;-75
2023/06/21 13:01:19;;;;;;;9.07;4.35;;;;;;;;;;5052181;28;20541;-76
2023/06/21 13:03:45;;;;;;;6.38;3.63;;;;;;;;;;5033999;28;20382;-76
2023/06/21 13:06:11;;;;;;;5.10;3.40;;;;;;;;;;5036612;28;20372;-75
2023/06/21 13:08:37;;;;;;;23.02;9.75;;;;;;;;;;5035095;28;20052;-76
2023/06/21 13:11:04;;;;;;;7.93;3.90;;;;;;;;;;5032673;28;20246;-76
2023/06/21 13:13:31;;;;;;;8.10;3.28;;;;;;;;;;5029156;28;20022;-76
2023/06/21 13:15:58;;;;;;;10.95;4.68;;;;;;;;;;5032740;28;20025;-76
2023/06/21 13:18:27;;;;;;;7.40;2.92;;;;;;;;;;5032996;28;20124;-77
2023/06/21 13:20:55;;;;;;;7.70;2.58;;;;;;;;;;5032378;28;20532;-77
2023/06/21 13:23:21;;;;;;;6.30;2.97;;;;;;;;;;5032030;28;20152;-77
2023/06/21 13:25:50;;;;;;;6.10;2.67;;;;;;;;;;5035252;28;20087;-77
2023/06/21 13:28:16;;;;;;;6.20;2.90;;;;;;;;;;5033749;28;20797;-80
2023/06/21 13:30:42;;;;;;;4.07;2.70;;;;;;;;;;5032951;28;20064;-77
2023/06/21 13:33:08;;;;;;;5.80;3.00;;;;;;;;;;5033459;28;20028;-77
2023/06/21 13:35:34;;;;;;;9.00;3.35;;;;;;;;;;5033107;28;20425;-76
2023/06/21 13:38:00;;;;;;;6.40;2.53;;;;;;;;;;5032847;28;20123;-75
2023/06/21 13:40:26;;;;;;;8.07;2.63;;;;;;;;;;5032807;28;20057;-75
2023/06/21 13:42:52;;;;;;;6.53;2.38;;;;;;;;;;5032614;28;20029;-75
2023/06/21 13:45:18;;;;;;;5.32;2.60;;;;;;;;;;5033095;28;20113;-75
2023/06/21 13:47:44;;;;;;;5.53;2.38;;;;;;;;;;5032828;28;20061;-77
2023/06/21 13:50:11;;;;;;;10.25;2.88;;;;;;;;;;5032890;28;20022;-76
2023/06/21 13:52:37;;;;;;;6.57;2.95;;;;;;;;;;5033449;28;20028;-77
2023/06/21 13:55:03;;;;;;;4.82;2.15;;;;;;;;;;5033260;28;20052;-77
2023/06/21 13:57:29;;;;;;;3.60;2.30;;;;;;;;;;5033508;28;20021;-77
2023/06/21 13:59:56;;;;;;;5.22;2.28;;;;;;;;;;5033406;28;20368;-76
2023/06/21 14:02:23;;;;;;;4.00;2.08;;;;;;;;;;5032453;28;20041;-76
2023/06/21 14:04:50;;;;;;;11.40;2.35;;;;;;;;;;5032864;28;20055;-77
2023/06/21 14:07:16;;;;;;;6.80;2.47;;;;;;;;;;5032862;28;20095;-76
2023/06/21 14:09:43;;;;;;;8.25;2.30;;;;;;;;;;5033370;28;20025;-80
2023/06/21 14:12:10;;;;;;;5.03;2.10;;;;;;;;;;5033410;28;20440;-77
2023/06/21 14:14:41;;;;;;;3.70;2.05;;;;;;;;;;5033696;28;20030;-75
2023/06/21 14:17:07;;;;;;;5.38;2.70;;;;;;;;;;5032209;28;20417;-76
2023/06/21 14:19:33;;;;;;;4.30;2.10;;;;;;;;;;5032402;28;20055;-74
2023/06/21 14:21:59;;;;;;;4.82;2.20;;;;;;;;;;5032306;28;20040;-75
2023/06/21 14:24:25;;;;;;;4.05;2.53;;;;;;;;;;5032048;28;20100;-75